sensor_id;sensor_type;location;lat;lon;timestamp;P1;durP1;ratioP1;P2;durP2;ratioP2
11829;SDS011;5972;42.134;24.718;2023-03-21T00:02:24;29.88;;;18.17;;
11829;SDS011;5972;42.134;24.718;2023-03-21T00:04:51;22.98;;;16.88;;
11829;SDS011;5972;42.134;24.718;2023-03-21T00:07:18;28.98;;;18.05;;
11829;SDS011;5972;42.134;24.718;2023-03-21T00:09:45;28.75;;;17.58;;
11829;SDS011;5972;42.134;24.718;2023-03-21T00:12:12;26.35;;;17.17;;
11829;SDS011;5972;42.134;24.718;2023-03-21T00:14:42;25.17;;;16.17;;
11829;SDS011;5972;42.134;24.718;2023-03-21T00:17:09;28.17;;;16.70;;
11829;SDS011;5972;42.134;24.718;2023-03-21T00:19:36;23.08;;;16.58;;
11829;SDS011;5972;42.134;24.718;2023-03-21T00:22:05;28.40;;;18.63;;
11829;SDS011;5972;42.134;24.718;2023-03-21T00:24:32;37.38;;;23.05;;
11829;SDS011;5972;42.134;24.718;2023-03-21T00:26:58;52.75;;;30.02;;
11829;SDS011;5972;42.134;24.718;2023-03-21T00:29:25;30.48;;;21.48;;
11829;SDS011;5972;42.134;24.718;2023-03-21T00:31:53;56.55;;;34.72;;
11829;SDS011;5972;42.134;24.718;2023-03-21T00:34:20;34.85;;;23.23;;
11829;SDS011;5972;42.134;24.718;2023-03-21T00:36:47;43.00;;;22.58;;
11829;SDS011;5972;42.134;24.718;2023-03-21T00:39:14;38.22;;;21.60;;
11829;SDS011;5972;42.134;24.718;2023-03-21T00:41:57;37.53;;;24.42;;
11829;SDS011;5972;42.134;24.718;2023-03-21T00:44:24;34.17;;;22.63;;
11829;SDS011;5972;42.134;24.718;2023-03-21T00:46:50;37.08;;;22.30;;
11829;SDS011;5972;42.134;24.718;2023-03-21T00:49:18;34.78;;;21.60;;
11829;SDS011;5972;42.134;24.718;2023-03-21T00:51:45;30.98;;;21.98;;
11829;SDS011;5972;42.134;24.718;2023-03-21T00:56:49;32.83;;;20.58;;
11829;SDS011;5972;42.134;24.718;2023-03-21T01:02:42;32.92;;;20.50;;
11829;SDS011;5972;42.134;24.718;2023-03-21T01:05:24;33.55;;;18.15;;
11829;SDS011;5972;42.134;24.718;2023-03-21T01:11:28;29.00;;;17.08;;
11829;SDS011;5972;42.134;24.718;2023-03-21T01:13:55;24.98;;;17.33;;
11829;SDS011;5972;42.134;24.718;2023-03-21T01:16:23;24.50;;;16.35;;
11829;SDS011;5972;42.134;24.718;2023-03-21T01:18:50;25.02;;;15.48;;
11829;SDS011;5972;42.134;24.718;2023-03-21T01:21:18;30.38;;;16.85;;
11829;SDS011;5972;42.134;24.718;2023-03-21T01:23:45;26.80;;;15.68;;
11829;SDS011;5972;42.134;24.718;2023-03-21T01:26:13;27.63;;;17.38;;
11829;SDS011;5972;42.134;24.718;2023-03-21T01:28:41;27.33;;;18.25;;
11829;SDS011;5972;42.134;24.718;2023-03-21T01:31:09;25.25;;;15.93;;
11829;SDS011;5972;42.134;24.718;2023-03-21T01:36:25;22.92;;;15.98;;
11829;SDS011;5972;42.134;24.718;2023-03-21T01:38:52;25.92;;;16.73;;
11829;SDS011;5972;42.134;24.718;2023-03-21T01:41:20;24.55;;;16.50;;
11829;SDS011;5972;42.134;24.718;2023-03-21T01:43:51;26.23;;;16.88;;
11829;SDS011;5972;42.134;24.718;2023-03-21T01:46:27;25.13;;;17.20;;
11829;SDS011;5972;42.134;24.718;2023-03-21T01:49:02;43.38;;;24.33;;
11829;SDS011;5972;42.134;24.718;2023-03-21T01:51:34;34.30;;;22.17;;
11829;SDS011;5972;42.134;24.718;2023-03-21T01:54:03;30.05;;;20.13;;
11829;SDS011;5972;42.134;24.718;2023-03-21T01:56:34;35.78;;;20.67;;
11829;SDS011;5972;42.134;24.718;2023-03-21T01:59:19;32.97;;;21.65;;
11829;SDS011;5972;42.134;24.718;2023-03-21T02:01:50;32.38;;;18.73;;
11829;SDS011;5972;42.134;24.718;2023-03-21T02:04:17;26.17;;;17.60;;
11829;SDS011;5972;42.134;24.718;2023-03-21T02:09:43;36.78;;;21.75;;
11829;SDS011;5972;42.134;24.718;2023-03-21T02:12:12;33.63;;;19.38;;
11829;SDS011;5972;42.134;24.718;2023-03-21T02:14:40;32.30;;;19.05;;
11829;SDS011;5972;42.134;24.718;2023-03-21T02:17:09;30.23;;;18.92;;
11829;SDS011;5972;42.134;24.718;2023-03-21T02:28:59;24.42;;;15.85;;
11829;SDS011;5972;42.134;24.718;2023-03-21T02:31:35;26.20;;;15.52;;
11829;SDS011;5972;42.134;24.718;2023-03-21T02:37:17;33.47;;;20.13;;
11829;SDS011;5972;42.134;24.718;2023-03-21T02:39:50;23.48;;;16.17;;
11829;SDS011;5972;42.134;24.718;2023-03-21T02:42:24;22.05;;;16.17;;
11829;SDS011;5972;42.134;24.718;2023-03-21T02:45:00;23.63;;;15.73;;
11829;SDS011;5972;42.134;24.718;2023-03-21T02:47:32;23.00;;;16.60;;
11829;SDS011;5972;42.134;24.718;2023-03-21T02:50:03;26.65;;;16.63;;
11829;SDS011;5972;42.134;24.718;2023-03-21T02:52:36;35.00;;;17.58;;
11829;SDS011;5972;42.134;24.718;2023-03-21T02:55:06;27.08;;;17.20;;
11829;SDS011;5972;42.134;24.718;2023-03-21T02:57:38;24.23;;;16.23;;
11829;SDS011;5972;42.134;24.718;2023-03-21T03:00:08;29.63;;;17.40;;
11829;SDS011;5972;42.134;24.718;2023-03-21T03:02:49;22.58;;;17.17;;
11829;SDS011;5972;42.134;24.718;2023-03-21T03:05:18;24.02;;;17.40;;
11829;SDS011;5972;42.134;24.718;2023-03-21T03:07:55;28.42;;;18.80;;
11829;SDS011;5972;42.134;24.718;2023-03-21T03:10:38;30.52;;;17.52;;
11829;SDS011;5972;42.134;24.718;2023-03-21T03:13:19;21.90;;;16.90;;
11829;SDS011;5972;42.134;24.718;2023-03-21T03:15:58;25.55;;;17.13;;
11829;SDS011;5972;42.134;24.718;2023-03-21T03:18:37;25.42;;;17.73;;
11829;SDS011;5972;42.134;24.718;2023-03-21T03:21:25;24.45;;;16.98;;
11829;SDS011;5972;42.134;24.718;2023-03-21T03:24:00;25.88;;;18.02;;
11829;SDS011;5972;42.134;24.718;2023-03-21T03:26:29;27.75;;;17.95;;
11829;SDS011;5972;42.134;24.718;2023-03-21T03:29:00;26.05;;;17.73;;
11829;SDS011;5972;42.134;24.718;2023-03-21T03:31:30;28.38;;;17.42;;
11829;SDS011;5972;42.134;24.718;2023-03-21T03:34:00;25.05;;;17.55;;
11829;SDS011;5972;42.134;24.718;2023-03-21T03:36:32;25.67;;;18.60;;
11829;SDS011;5972;42.134;24.718;2023-03-21T03:39:07;25.55;;;18.17;;
11829;SDS011;5972;42.134;24.718;2023-03-21T03:41:37;26.00;;;16.97;;
11829;SDS011;5972;42.134;24.718;2023-03-21T03:44:09;27.70;;;18.58;;
11829;SDS011;5972;42.134;24.718;2023-03-21T03:46:38;24.05;;;17.52;;
11829;SDS011;5972;42.134;24.718;2023-03-21T03:49:11;24.23;;;16.27;;
11829;SDS011;5972;42.134;24.718;2023-03-21T03:51:44;23.67;;;17.65;;
11829;SDS011;5972;42.134;24.718;2023-03-21T03:54:20;23.50;;;17.88;;
11829;SDS011;5972;42.134;24.718;2023-03-21T03:56:50;26.77;;;17.73;;
11829;SDS011;5972;42.134;24.718;2023-03-21T03:59:18;26.48;;;17.98;;
11829;SDS011;5972;42.134;24.718;2023-03-21T04:01:47;26.63;;;17.08;;
11829;SDS011;5972;42.134;24.718;2023-03-21T04:04:14;25.63;;;17.53;;
11829;SDS011;5972;42.134;24.718;2023-03-21T04:06:42;25.77;;;17.67;;
11829;SDS011;5972;42.134;24.718;2023-03-21T04:09:10;28.70;;;18.63;;
11829;SDS011;5972;42.134;24.718;2023-03-21T04:11:38;25.00;;;16.77;;
11829;SDS011;5972;42.134;24.718;2023-03-21T04:14:05;27.20;;;17.73;;
11829;SDS011;5972;42.134;24.718;2023-03-21T04:16:32;23.23;;;16.97;;
11829;SDS011;5972;42.134;24.718;2023-03-21T04:18:59;25.77;;;17.40;;
11829;SDS011;5972;42.134;24.718;2023-03-21T04:21:26;28.73;;;18.00;;
11829;SDS011;5972;42.134;24.718;2023-03-21T04:23:54;27.97;;;17.97;;
11829;SDS011;5972;42.134;24.718;2023-03-21T04:26:21;26.40;;;17.40;;
11829;SDS011;5972;42.134;24.718;2023-03-21T04:28:50;26.73;;;16.27;;
11829;SDS011;5972;42.134;24.718;2023-03-21T04:31:16;23.17;;;17.13;;
11829;SDS011;5972;42.134;24.718;2023-03-21T04:33:43;21.60;;;16.30;;
11829;SDS011;5972;42.134;24.718;2023-03-21T04:36:12;24.33;;;16.70;;
11829;SDS011;5972;42.134;24.718;2023-03-21T04:38:49;28.07;;;15.73;;
11829;SDS011;5972;42.134;24.718;2023-03-21T04:41:16;28.57;;;15.87;;
11829;SDS011;5972;42.134;24.718;2023-03-21T04:43:43;25.63;;;15.30;;
11829;SDS011;5972;42.134;24.718;2023-03-21T04:46:23;28.13;;;17.27;;
11829;SDS011;5972;42.134;24.718;2023-03-21T04:48:50;24.27;;;16.63;;
11829;SDS011;5972;42.134;24.718;2023-03-21T04:51:17;24.40;;;15.97;;
11829;SDS011;5972;42.134;24.718;2023-03-21T04:57:05;25.90;;;16.37;;
11829;SDS011;5972;42.134;24.718;2023-03-21T04:59:32;22.75;;;16.63;;
11829;SDS011;5972;42.134;24.718;2023-03-21T05:02:00;27.77;;;18.80;;
11829;SDS011;5972;42.134;24.718;2023-03-21T05:04:28;25.48;;;18.85;;
11829;SDS011;5972;42.134;24.718;2023-03-21T05:06:55;30.60;;;16.40;;
11829;SDS011;5972;42.134;24.718;2023-03-21T05:09:22;26.58;;;17.58;;
11829;SDS011;5972;42.134;24.718;2023-03-21T05:15:30;28.67;;;17.80;;
11829;SDS011;5972;42.134;24.718;2023-03-21T05:17:58;43.10;;;19.33;;
11829;SDS011;5972;42.134;24.718;2023-03-21T05:20:35;26.98;;;17.88;;
11829;SDS011;5972;42.134;24.718;2023-03-21T05:23:02;30.60;;;19.60;;
11829;SDS011;5972;42.134;24.718;2023-03-21T05:25:29;35.85;;;18.77;;
11829;SDS011;5972;42.134;24.718;2023-03-21T05:27:59;37.22;;;17.67;;
11829;SDS011;5972;42.134;24.718;2023-03-21T05:30:27;43.45;;;18.90;;
11829;SDS011;5972;42.134;24.718;2023-03-21T05:32:54;32.00;;;18.17;;
11829;SDS011;5972;42.134;24.718;2023-03-21T05:35:22;35.70;;;18.90;;
11829;SDS011;5972;42.134;24.718;2023-03-21T05:37:48;35.05;;;18.08;;
11829;SDS011;5972;42.134;24.718;2023-03-21T05:40:15;28.58;;;17.73;;
11829;SDS011;5972;42.134;24.718;2023-03-21T05:42:42;39.00;;;18.00;;
11829;SDS011;5972;42.134;24.718;2023-03-21T05:45:10;31.67;;;18.25;;
11829;SDS011;5972;42.134;24.718;2023-03-21T05:47:37;37.03;;;19.08;;
11829;SDS011;5972;42.134;24.718;2023-03-21T05:50:04;31.15;;;17.80;;
11829;SDS011;5972;42.134;24.718;2023-03-21T05:52:33;39.20;;;19.23;;
11829;SDS011;5972;42.134;24.718;2023-03-21T05:55:00;34.83;;;18.92;;
11829;SDS011;5972;42.134;24.718;2023-03-21T05:57:27;35.38;;;19.27;;
11829;SDS011;5972;42.134;24.718;2023-03-21T05:59:54;41.72;;;19.75;;
11829;SDS011;5972;42.134;24.718;2023-03-21T06:02:21;48.33;;;19.58;;
11829;SDS011;5972;42.134;24.718;2023-03-21T06:04:47;44.83;;;19.55;;
11829;SDS011;5972;42.134;24.718;2023-03-21T06:07:14;36.15;;;19.73;;
11829;SDS011;5972;42.134;24.718;2023-03-21T06:09:42;41.97;;;23.13;;
11829;SDS011;5972;42.134;24.718;2023-03-21T06:12:09;42.00;;;20.45;;
11829;SDS011;5972;42.134;24.718;2023-03-21T06:14:37;43.10;;;19.83;;
11829;SDS011;5972;42.134;24.718;2023-03-21T06:17:04;29.17;;;16.75;;
11829;SDS011;5972;42.134;24.718;2023-03-21T06:19:31;35.58;;;16.83;;
11829;SDS011;5972;42.134;24.718;2023-03-21T06:21:57;23.50;;;14.75;;
11829;SDS011;5972;42.134;24.718;2023-03-21T06:24:25;27.08;;;15.27;;
11829;SDS011;5972;42.134;24.718;2023-03-21T06:26:54;28.40;;;14.98;;
11829;SDS011;5972;42.134;24.718;2023-03-21T06:29:21;24.23;;;13.85;;
11829;SDS011;5972;42.134;24.718;2023-03-21T06:31:48;21.08;;;13.73;;
11829;SDS011;5972;42.134;24.718;2023-03-21T06:34:14;24.77;;;13.18;;
11829;SDS011;5972;42.134;24.718;2023-03-21T06:36:41;25.13;;;13.82;;
11829;SDS011;5972;42.134;24.718;2023-03-21T06:39:10;32.03;;;14.13;;
11829;SDS011;5972;42.134;24.718;2023-03-21T06:41:38;23.35;;;14.80;;
11829;SDS011;5972;42.134;24.718;2023-03-21T06:44:07;20.85;;;14.73;;
11829;SDS011;5972;42.134;24.718;2023-03-21T06:46:34;23.08;;;14.43;;
11829;SDS011;5972;42.134;24.718;2023-03-21T06:49:01;21.52;;;14.88;;
11829;SDS011;5972;42.134;24.718;2023-03-21T06:51:28;22.52;;;14.40;;
11829;SDS011;5972;42.134;24.718;2023-03-21T06:53:55;20.63;;;14.25;;
11829;SDS011;5972;42.134;24.718;2023-03-21T06:56:22;22.10;;;13.55;;
11829;SDS011;5972;42.134;24.718;2023-03-21T06:58:49;23.50;;;15.65;;
11829;SDS011;5972;42.134;24.718;2023-03-21T07:01:17;22.15;;;15.05;;
11829;SDS011;5972;42.134;24.718;2023-03-21T07:03:45;23.05;;;14.93;;
11829;SDS011;5972;42.134;24.718;2023-03-21T07:06:12;25.48;;;17.23;;
11829;SDS011;5972;42.134;24.718;2023-03-21T07:08:40;26.92;;;16.73;;
11829;SDS011;5972;42.134;24.718;2023-03-21T07:11:07;25.05;;;15.38;;
11829;SDS011;5972;42.134;24.718;2023-03-21T07:13:35;28.73;;;15.52;;
11829;SDS011;5972;42.134;24.718;2023-03-21T07:16:02;26.02;;;16.08;;
11829;SDS011;5972;42.134;24.718;2023-03-21T07:18:31;24.65;;;16.77;;
11829;SDS011;5972;42.134;24.718;2023-03-21T07:20:57;23.95;;;15.88;;
11829;SDS011;5972;42.134;24.718;2023-03-21T07:23:25;26.30;;;15.98;;
11829;SDS011;5972;42.134;24.718;2023-03-21T07:25:52;21.83;;;15.38;;
11829;SDS011;5972;42.134;24.718;2023-03-21T07:28:20;25.45;;;15.48;;
11829;SDS011;5972;42.134;24.718;2023-03-21T07:30:51;26.08;;;15.73;;
11829;SDS011;5972;42.134;24.718;2023-03-21T07:33:19;25.08;;;15.65;;
11829;SDS011;5972;42.134;24.718;2023-03-21T07:35:48;21.83;;;15.10;;
11829;SDS011;5972;42.134;24.718;2023-03-21T07:38:15;28.95;;;16.63;;
11829;SDS011;5972;42.134;24.718;2023-03-21T07:40:42;25.08;;;17.20;;
11829;SDS011;5972;42.134;24.718;2023-03-21T07:43:09;29.73;;;17.90;;
11829;SDS011;5972;42.134;24.718;2023-03-21T07:45:36;24.63;;;15.23;;
11829;SDS011;5972;42.134;24.718;2023-03-21T07:48:03;21.83;;;15.43;;
11829;SDS011;5972;42.134;24.718;2023-03-21T07:50:30;29.00;;;16.40;;
11829;SDS011;5972;42.134;24.718;2023-03-21T07:52:59;20.92;;;14.43;;
11829;SDS011;5972;42.134;24.718;2023-03-21T07:55:26;19.05;;;13.93;;
11829;SDS011;5972;42.134;24.718;2023-03-21T07:57:53;19.58;;;13.95;;
11829;SDS011;5972;42.134;24.718;2023-03-21T08:00:20;24.13;;;14.05;;
11829;SDS011;5972;42.134;24.718;2023-03-21T08:02:48;19.80;;;13.45;;
11829;SDS011;5972;42.134;24.718;2023-03-21T08:05:19;23.70;;;13.20;;
11829;SDS011;5972;42.134;24.718;2023-03-21T08:07:46;23.52;;;13.88;;
11829;SDS011;5972;42.134;24.718;2023-03-21T08:10:15;18.20;;;13.50;;
11829;SDS011;5972;42.134;24.718;2023-03-21T08:12:42;19.10;;;12.13;;
11829;SDS011;5972;42.134;24.718;2023-03-21T08:15:09;20.90;;;11.98;;
11829;SDS011;5972;42.134;24.718;2023-03-21T08:17:36;16.48;;;11.05;;
11829;SDS011;5972;42.134;24.718;2023-03-21T08:20:04;26.27;;;11.45;;
11829;SDS011;5972;42.134;24.718;2023-03-21T08:22:33;24.08;;;11.80;;
11829;SDS011;5972;42.134;24.718;2023-03-21T08:25:00;23.98;;;12.30;;
11829;SDS011;5972;42.134;24.718;2023-03-21T08:27:29;19.15;;;12.35;;
11829;SDS011;5972;42.134;24.718;2023-03-21T08:29:56;14.25;;;11.68;;
11829;SDS011;5972;42.134;24.718;2023-03-21T08:32:23;19.45;;;11.55;;
11829;SDS011;5972;42.134;24.718;2023-03-21T08:34:53;18.05;;;12.13;;
11829;SDS011;5972;42.134;24.718;2023-03-21T08:37:22;24.23;;;11.20;;
11829;SDS011;5972;42.134;24.718;2023-03-21T08:39:49;17.50;;;11.10;;
11829;SDS011;5972;42.134;24.718;2023-03-21T08:42:16;15.07;;;11.00;;
11829;SDS011;5972;42.134;24.718;2023-03-21T08:44:45;16.33;;;11.10;;
11829;SDS011;5972;42.134;24.718;2023-03-21T08:47:12;14.55;;;10.82;;
11829;SDS011;5972;42.134;24.718;2023-03-21T08:49:38;14.10;;;10.73;;
11829;SDS011;5972;42.134;24.718;2023-03-21T08:52:06;18.70;;;11.73;;
11829;SDS011;5972;42.134;24.718;2023-03-21T08:54:33;12.43;;;10.38;;
11829;SDS011;5972;42.134;24.718;2023-03-21T08:57:00;17.42;;;12.38;;
11829;SDS011;5972;42.134;24.718;2023-03-21T08:59:27;16.63;;;11.55;;
11829;SDS011;5972;42.134;24.718;2023-03-21T09:01:55;15.82;;;11.23;;
11829;SDS011;5972;42.134;24.718;2023-03-21T09:04:22;18.08;;;12.18;;
11829;SDS011;5972;42.134;24.718;2023-03-21T09:06:50;18.48;;;11.93;;
11829;SDS011;5972;42.134;24.718;2023-03-21T09:09:17;17.90;;;11.73;;
11829;SDS011;5972;42.134;24.718;2023-03-21T09:11:44;15.55;;;11.10;;
11829;SDS011;5972;42.134;24.718;2023-03-21T09:14:10;17.20;;;11.40;;
11829;SDS011;5972;42.134;24.718;2023-03-21T09:16:37;20.42;;;11.75;;
11829;SDS011;5972;42.134;24.718;2023-03-21T09:19:06;19.48;;;11.88;;
11829;SDS011;5972;42.134;24.718;2023-03-21T09:21:34;24.00;;;12.05;;
11829;SDS011;5972;42.134;24.718;2023-03-21T09:24:02;22.17;;;11.75;;
11829;SDS011;5972;42.134;24.718;2023-03-21T09:26:30;19.50;;;11.52;;
11829;SDS011;5972;42.134;24.718;2023-03-21T09:28:58;16.58;;;11.88;;
11829;SDS011;5972;42.134;24.718;2023-03-21T09:31:27;16.73;;;11.85;;
11829;SDS011;5972;42.134;24.718;2023-03-21T09:33:55;22.45;;;11.93;;
11829;SDS011;5972;42.134;24.718;2023-03-21T09:36:23;19.02;;;12.27;;
11829;SDS011;5972;42.134;24.718;2023-03-21T09:38:51;18.95;;;11.35;;
11829;SDS011;5972;42.134;24.718;2023-03-21T09:41:22;21.77;;;12.10;;
11829;SDS011;5972;42.134;24.718;2023-03-21T09:44:16;24.55;;;12.52;;
11829;SDS011;5972;42.134;24.718;2023-03-21T09:46:59;18.45;;;12.65;;
11829;SDS011;5972;42.134;24.718;2023-03-21T09:49:31;19.38;;;12.18;;
11829;SDS011;5972;42.134;24.718;2023-03-21T09:52:06;17.70;;;12.02;;
11829;SDS011;5972;42.134;24.718;2023-03-21T09:54:39;21.08;;;12.43;;
11829;SDS011;5972;42.134;24.718;2023-03-21T09:57:10;17.30;;;11.48;;
11829;SDS011;5972;42.134;24.718;2023-03-21T09:59:46;21.42;;;12.30;;
11829;SDS011;5972;42.134;24.718;2023-03-21T10:02:25;16.20;;;11.38;;
11829;SDS011;5972;42.134;24.718;2023-03-21T10:05:01;16.30;;;10.63;;
11829;SDS011;5972;42.134;24.718;2023-03-21T10:07:37;15.52;;;9.93;;
11829;SDS011;5972;42.134;24.718;2023-03-21T10:10:11;15.95;;;10.70;;
11829;SDS011;5972;42.134;24.718;2023-03-21T10:12:41;21.10;;;12.02;;
11829;SDS011;5972;42.134;24.718;2023-03-21T10:15:13;15.40;;;11.05;;
11829;SDS011;5972;42.134;24.718;2023-03-21T10:17:43;21.00;;;11.98;;
11829;SDS011;5972;42.134;24.718;2023-03-21T10:20:17;18.38;;;11.80;;
11829;SDS011;5972;42.134;24.718;2023-03-21T10:22:48;16.95;;;11.57;;
11829;SDS011;5972;42.134;24.718;2023-03-21T10:25:17;19.50;;;11.93;;
11829;SDS011;5972;42.134;24.718;2023-03-21T10:27:46;23.48;;;11.38;;
11829;SDS011;5972;42.134;24.718;2023-03-21T10:30:18;15.18;;;10.95;;
11829;SDS011;5972;42.134;24.718;2023-03-21T10:32:51;16.80;;;10.88;;
11829;SDS011;5972;42.134;24.718;2023-03-21T10:35:21;15.07;;;10.10;;
11829;SDS011;5972;42.134;24.718;2023-03-21T10:37:49;15.50;;;10.45;;
11829;SDS011;5972;42.134;24.718;2023-03-21T10:40:16;21.58;;;10.10;;
11829;SDS011;5972;42.134;24.718;2023-03-21T10:42:43;19.52;;;10.00;;
11829;SDS011;5972;42.134;24.718;2023-03-21T10:45:14;22.98;;;9.43;;
11829;SDS011;5972;42.134;24.718;2023-03-21T10:47:42;13.13;;;8.60;;
11829;SDS011;5972;42.134;24.718;2023-03-21T10:50:14;16.42;;;8.70;;
11829;SDS011;5972;42.134;24.718;2023-03-21T10:52:44;14.52;;;9.50;;
11829;SDS011;5972;42.134;24.718;2023-03-21T10:55:19;18.35;;;10.07;;
11829;SDS011;5972;42.134;24.718;2023-03-21T10:57:54;12.82;;;10.00;;
11829;SDS011;5972;42.134;24.718;2023-03-21T11:00:25;18.42;;;10.40;;
11829;SDS011;5972;42.134;24.718;2023-03-21T11:02:55;17.00;;;11.45;;
11829;SDS011;5972;42.134;24.718;2023-03-21T11:05:24;18.48;;;11.27;;
11829;SDS011;5972;42.134;24.718;2023-03-21T11:07:59;17.73;;;10.57;;
11829;SDS011;5972;42.134;24.718;2023-03-21T11:10:30;12.45;;;9.50;;
11829;SDS011;5972;42.134;24.718;2023-03-21T11:13:01;12.52;;;9.48;;
11829;SDS011;5972;42.134;24.718;2023-03-21T11:15:33;17.83;;;9.00;;
11829;SDS011;5972;42.134;24.718;2023-03-21T11:18:14;12.32;;;9.80;;
11829;SDS011;5972;42.134;24.718;2023-03-21T11:20:49;20.02;;;10.07;;
11829;SDS011;5972;42.134;24.718;2023-03-21T11:23:18;18.00;;;10.77;;
11829;SDS011;5972;42.134;24.718;2023-03-21T11:25:47;14.80;;;10.68;;
11829;SDS011;5972;42.134;24.718;2023-03-21T11:28:16;16.67;;;10.40;;
11829;SDS011;5972;42.134;24.718;2023-03-21T11:30:50;15.88;;;10.85;;
11829;SDS011;5972;42.134;24.718;2023-03-21T11:33:19;14.57;;;10.55;;
11829;SDS011;5972;42.134;24.718;2023-03-21T11:35:56;13.18;;;9.40;;
11829;SDS011;5972;42.134;24.718;2023-03-21T11:38:26;19.10;;;11.57;;
11829;SDS011;5972;42.134;24.718;2023-03-21T11:40:58;19.52;;;10.50;;
11829;SDS011;5972;42.134;24.718;2023-03-21T11:43:26;15.27;;;11.02;;
11829;SDS011;5972;42.134;24.718;2023-03-21T11:45:56;17.02;;;10.38;;
11829;SDS011;5972;42.134;24.718;2023-03-21T11:48:25;18.17;;;9.70;;
11829;SDS011;5972;42.134;24.718;2023-03-21T11:50:55;19.33;;;10.50;;
11829;SDS011;5972;42.134;24.718;2023-03-21T11:53:31;19.25;;;9.98;;
11829;SDS011;5972;42.134;24.718;2023-03-21T11:59:00;17.08;;;11.43;;
11829;SDS011;5972;42.134;24.718;2023-03-21T12:01:54;20.10;;;11.30;;
11829;SDS011;5972;42.134;24.718;2023-03-21T12:04:35;15.48;;;11.52;;
11829;SDS011;5972;42.134;24.718;2023-03-21T12:07:08;17.23;;;11.07;;
11829;SDS011;5972;42.134;24.718;2023-03-21T12:09:50;18.15;;;12.02;;
11829;SDS011;5972;42.134;24.718;2023-03-21T12:12:29;21.10;;;11.73;;
11829;SDS011;5972;42.134;24.718;2023-03-21T12:15:05;15.82;;;10.10;;
11829;SDS011;5972;42.134;24.718;2023-03-21T12:17:42;13.63;;;10.82;;
11829;SDS011;5972;42.134;24.718;2023-03-21T12:23:15;11.70;;;10.18;;
11829;SDS011;5972;42.134;24.718;2023-03-21T12:28:59;16.08;;;10.82;;
11829;SDS011;5972;42.134;24.718;2023-03-21T12:31:40;19.52;;;10.88;;
11829;SDS011;5972;42.134;24.718;2023-03-21T12:34:22;30.30;;;10.45;;
11829;SDS011;5972;42.134;24.718;2023-03-21T12:37:03;12.75;;;9.05;;
11829;SDS011;5972;42.134;24.718;2023-03-21T12:39:39;12.02;;;9.80;;
11829;SDS011;5972;42.134;24.718;2023-03-21T12:42:12;17.40;;;9.82;;
11829;SDS011;5972;42.134;24.718;2023-03-21T12:45:12;14.93;;;10.10;;
11829;SDS011;5972;42.134;24.718;2023-03-21T12:47:45;15.95;;;10.73;;
11829;SDS011;5972;42.134;24.718;2023-03-21T12:50:17;20.42;;;10.82;;
11829;SDS011;5972;42.134;24.718;2023-03-21T12:52:49;15.48;;;9.80;;
11829;SDS011;5972;42.134;24.718;2023-03-21T12:55:20;13.35;;;9.68;;
11829;SDS011;5972;42.134;24.718;2023-03-21T12:57:48;13.68;;;9.68;;
11829;SDS011;5972;42.134;24.718;2023-03-21T13:00:24;14.93;;;9.68;;
11829;SDS011;5972;42.134;24.718;2023-03-21T13:02:54;14.45;;;9.95;;
11829;SDS011;5972;42.134;24.718;2023-03-21T13:05:26;15.32;;;8.98;;
11829;SDS011;5972;42.134;24.718;2023-03-21T13:07:57;11.50;;;9.07;;
11829;SDS011;5972;42.134;24.718;2023-03-21T13:10:26;14.60;;;8.73;;
11829;SDS011;5972;42.134;24.718;2023-03-21T13:12:56;12.95;;;8.68;;
11829;SDS011;5972;42.134;24.718;2023-03-21T13:15:42;11.85;;;9.15;;
11829;SDS011;5972;42.134;24.718;2023-03-21T13:18:16;14.57;;;7.90;;
11829;SDS011;5972;42.134;24.718;2023-03-21T13:20:53;15.02;;;8.25;;
11829;SDS011;5972;42.134;24.718;2023-03-21T13:23:22;15.18;;;8.48;;
11829;SDS011;5972;42.134;24.718;2023-03-21T13:25:50;13.32;;;9.23;;
11829;SDS011;5972;42.134;24.718;2023-03-21T13:28:20;16.40;;;9.15;;
11829;SDS011;5972;42.134;24.718;2023-03-21T13:30:52;19.77;;;10.18;;
11829;SDS011;5972;42.134;24.718;2023-03-21T13:33:39;17.05;;;8.60;;
11829;SDS011;5972;42.134;24.718;2023-03-21T13:36:11;15.25;;;8.75;;
11829;SDS011;5972;42.134;24.718;2023-03-21T13:38:40;15.63;;;10.15;;
11829;SDS011;5972;42.134;24.718;2023-03-21T13:41:08;18.48;;;10.27;;
11829;SDS011;5972;42.134;24.718;2023-03-21T13:43:40;18.52;;;9.25;;
11829;SDS011;5972;42.134;24.718;2023-03-21T13:46:11;16.85;;;9.43;;
11829;SDS011;5972;42.134;24.718;2023-03-21T13:48:40;16.40;;;9.48;;
11829;SDS011;5972;42.134;24.718;2023-03-21T13:51:09;15.55;;;9.23;;
11829;SDS011;5972;42.134;24.718;2023-03-21T13:53:37;13.95;;;9.88;;
11829;SDS011;5972;42.134;24.718;2023-03-21T13:56:17;12.65;;;9.13;;
11829;SDS011;5972;42.134;24.718;2023-03-21T13:58:59;14.55;;;9.20;;
11829;SDS011;5972;42.134;24.718;2023-03-21T14:01:34;16.08;;;9.68;;
11829;SDS011;5972;42.134;24.718;2023-03-21T14:04:11;13.52;;;9.68;;
11829;SDS011;5972;42.134;24.718;2023-03-21T14:06:49;17.75;;;10.50;;
11829;SDS011;5972;42.134;24.718;2023-03-21T14:09:37;11.98;;;9.63;;
11829;SDS011;5972;42.134;24.718;2023-03-21T14:12:22;16.02;;;9.90;;
11829;SDS011;5972;42.134;24.718;2023-03-21T14:15:02;11.98;;;9.52;;
11829;SDS011;5972;42.134;24.718;2023-03-21T14:17:48;14.70;;;9.10;;
11829;SDS011;5972;42.134;24.718;2023-03-21T14:20:25;14.05;;;9.75;;
11829;SDS011;5972;42.134;24.718;2023-03-21T14:22:54;17.35;;;9.93;;
11829;SDS011;5972;42.134;24.718;2023-03-21T14:25:22;13.38;;;8.73;;
11829;SDS011;5972;42.134;24.718;2023-03-21T14:27:52;13.27;;;8.98;;
11829;SDS011;5972;42.134;24.718;2023-03-21T14:30:24;13.45;;;9.13;;
11829;SDS011;5972;42.134;24.718;2023-03-21T14:33:07;14.65;;;8.73;;
11829;SDS011;5972;42.134;24.718;2023-03-21T14:35:49;13.32;;;9.20;;
11829;SDS011;5972;42.134;24.718;2023-03-21T14:38:32;14.13;;;9.50;;
11829;SDS011;5972;42.134;24.718;2023-03-21T14:41:22;11.95;;;8.70;;
11829;SDS011;5972;42.134;24.718;2023-03-21T14:44:09;12.65;;;9.40;;
11829;SDS011;5972;42.134;24.718;2023-03-21T14:46:46;15.88;;;10.88;;
11829;SDS011;5972;42.134;24.718;2023-03-21T14:49:19;14.32;;;10.00;;
11829;SDS011;5972;42.134;24.718;2023-03-21T14:51:49;15.73;;;9.73;;
11829;SDS011;5972;42.134;24.718;2023-03-21T14:54:18;12.50;;;9.80;;
11829;SDS011;5972;42.134;24.718;2023-03-21T14:56:46;14.73;;;10.38;;
11829;SDS011;5972;42.134;24.718;2023-03-21T14:59:16;13.75;;;9.85;;
11829;SDS011;5972;42.134;24.718;2023-03-21T15:01:48;16.85;;;10.27;;
11829;SDS011;5972;42.134;24.718;2023-03-21T15:04:15;12.57;;;9.77;;
11829;SDS011;5972;42.134;24.718;2023-03-21T15:06:52;18.40;;;10.85;;
11829;SDS011;5972;42.134;24.718;2023-03-21T15:09:22;14.30;;;9.77;;
11829;SDS011;5972;42.134;24.718;2023-03-21T15:11:52;16.90;;;11.00;;
11829;SDS011;5972;42.134;24.718;2023-03-21T15:14:23;13.95;;;10.52;;
11829;SDS011;5972;42.134;24.718;2023-03-21T15:16:54;15.88;;;10.35;;
11829;SDS011;5972;42.134;24.718;2023-03-21T15:19:22;14.40;;;10.82;;
11829;SDS011;5972;42.134;24.718;2023-03-21T15:21:55;15.70;;;10.93;;
11829;SDS011;5972;42.134;24.718;2023-03-21T15:24:27;17.83;;;10.70;;
11829;SDS011;5972;42.134;24.718;2023-03-21T15:26:58;21.13;;;10.95;;
11829;SDS011;5972;42.134;24.718;2023-03-21T15:29:27;24.70;;;15.10;;